Tikaboo Peak, Nevada Weather observations

Data are for 10 minute period ending at time listed.
 Day   Time   Solar   Ave.   Ave.  Ave.  Vector  Max.   Baro.   Total    
  of    of     Rad.   Air    Rel.  Wind   Wind   Wind  Press.  Precip.   
Year   Day            Temp.  Hum.  Speed  Dir.   Gust                    
2016   (PST)  Kw/m2    F      %     mph   deg.    mph    mb.     in.     
-------------------------------------------------------------------------
 182    4:00   0.00   65.3    39   12.5   173    19.5   766.4    0.00 
 182    4:10   0.00   64.9    40   10.4   172    14.9   766.4    0.00 
 182    4:20   0.00   65.0    40   11.1   173    18.9   766.5    0.00 
 182    4:30   0.00   64.8    40    9.4   175    14.1   766.7    0.00 
 182    4:40   0.01   64.7    40    9.4   171    12.5   766.7    0.00 
 182    4:50   0.04   65.1    40   10.3   170    13.4   766.7    0.00 
 182    5:00   0.08   65.4    39   10.4   170    13.7   766.6    0.00 
 182    5:10   0.13   66.3    38   11.0   174    14.4   766.6    0.00 
 182    5:20   0.10   66.3    38   10.9   175    14.2   766.7    0.00 
 182    5:30   0.05   65.5    39   12.8   176    14.8   766.7    0.00 
 182    5:40   0.07   65.3    39   13.0   172    17.6   766.7    0.00 
 182    5:50   0.09   65.4    39   12.1   169    16.6   766.6    0.00 
 182    6:00   0.10   65.5    39   10.8   174    15.4   766.7    0.00 
 182    6:10   0.10   65.5    39   11.5   178    14.6   766.7    0.00 
 182    6:20   0.11   65.5    40   10.3   177    14.1   766.8    0.00 
 182    6:30   0.11   65.5    40   11.5   176    14.3   766.9    0.00 
 182    6:40   0.12   65.6    41   10.3   181    15.5   767.0    0.00 
 182    6:50   0.13   65.6    41    6.3   181     9.4   767.1    0.00 
 182    7:00   0.16   65.6    41    7.8   178    11.1   767.2    0.00 
 182    7:10   0.19   65.8    42    6.3   170     9.8   767.3    0.00 
 182    7:20   0.22   65.2    44    8.1   147    11.2   767.3    0.00 
 182    7:30   0.30   64.9    46    9.4   147    12.1   767.4    0.00 
 182    7:40   0.27   64.9    46    8.4   150    12.9   767.4    0.00 
 182    7:50   0.50   65.7    44   10.8   148    13.9   767.4    0.00 
 182    8:00   0.51   66.8    43    9.1   138    13.1   767.5    0.00 
 182    8:10   0.85   69.2    40    7.4   136    11.8   767.5    0.00 
 182    8:20   0.76   71.1    38    4.5   133     9.6   767.6    0.00 
 182    8:30   0.56   71.7    37    4.2   136    11.0   767.7    0.00 
 182    8:40   0.46   69.1    40    5.0   136     8.3   767.7    0.00 
 182    8:50   0.78   70.3    38    4.8   146     9.3   767.7    0.00 
 182    9:00   0.96   72.3    36    3.6   163     9.7   767.7    0.00 
 182    9:10   0.99   73.7    34    4.6   142    10.0   767.6    0.00 
 182    9:20   0.94   74.6    33    3.6   148     8.6   767.7    0.00 
 182    9:30   0.97   73.7    34    4.3   164     9.7   767.7    0.00 
 182    9:40   0.99   74.2    33    4.0   160    11.0   767.7    0.00 
 182    9:50   1.02   75.7    32    5.0   169    10.6   767.7    0.00 
 182   10:00   1.06   74.9    32    5.8   176    10.5   767.8    0.00 
 182   10:10   1.10   76.4    30    5.2   178    12.3   767.7    0.00 
 182   10:20   1.12   75.5    31    5.5   173    12.7   767.8    0.00 
 182   10:30   1.19   76.3    31    7.6   178    13.9   767.8    0.00 
 182   10:40   100.00   75.3    32    7.7   176    13.7   767.8    0.00 
 182   10:50   100.00   75.2    33    7.3   176    15.1   767.8    0.00 
 182   11:00   100.00   74.4    34    8.9   180    14.0   767.8    0.00 
 182   11:10   1.18   76.0    34   10.0   184    17.4   767.7    0.00 
 182   11:20   0.96   75.3    34   10.7   185    19.2   767.6    0.00 
 182   11:30   0.91   74.2    35   10.6   183    18.8   767.5    0.00 
 182   11:40   1.08   75.7    33   10.4   184    15.9   767.4    0.00 
 182   11:50   1.12   76.3    31   10.5   183    17.3   767.4    0.00 
 182   12:00   1.15   76.5    31    9.8   182    17.9   767.3    0.00 
 182   12:10   0.83   76.4    31   10.8   186    21.1   767.1    0.00 
 182   12:20   1.05   76.4    30   10.2   179    19.8   767.0    0.00 
 182   12:30   0.90   76.3    30   11.9   186    21.3   767.0    0.00 
 182   12:40   0.72   75.8    31   11.7   184    19.8   767.0    0.00 
 182   12:50   0.67   75.5    31   10.5   185    16.9   767.0    0.00 
 182   13:00   0.56   74.5    32   13.3   185    20.8   767.0    0.00 
 182   13:10   0.51   73.5    33   13.1   186    20.8   766.8    0.00 
 182   13:20   0.49   73.2    34   11.3   183    18.9   766.8    0.00 
 182   13:30   0.50   73.4    34   11.7   181    19.6   766.6    0.00 
 182   13:40   0.47   72.6    36   13.8   182    22.4   766.4    0.00 
 182   13:50   0.51   71.9    40   14.6   181    26.2   766.3    0.00 
 182   14:00   0.75   72.2    40   12.7   181    19.6   766.3    0.00 
 182   14:10   0.89   74.1    38   13.7   183    19.3   766.1    0.00 
 182   14:20   0.81   74.5    37   13.1   181    20.1   766.0    0.00 
 182   14:30   0.75   74.5    38   12.4   183    21.3   766.0    0.00 
 182   14:40   0.70   74.9    35    9.0   179    15.6   766.0    0.00 
 182   14:50   0.70   75.3    34    6.7   178    14.2   765.9    0.00 
 182   15:00   0.68   74.1    35    6.8   178    12.6   765.8    0.00 
 182   15:10   0.64   75.6    32    3.2   116     6.1   765.8    0.00 
 182   15:20   0.16   73.9    31    9.9    80    34.3   765.9    0.00 
 182   15:30   0.04   68.1    32   25.0    65    40.7   765.5    0.00 
 182   15:40   0.04   67.0    36   19.4    55    39.1   765.5    0.00 
 182   15:50   0.03   66.3    52   16.2    57    35.1   765.5    0.02 
 182   16:00   0.01   60.8    78   13.7    56    28.0   766.0    0.06 
 182   16:10   0.01   60.2    74   19.0    55    33.9   765.7    0.02 
 182   16:20   0.01   59.9    66   16.0    55    35.9   765.8    0.00 
 182   16:30   0.01   60.5    60   18.4    60    30.0   766.0    0.00 
 182   16:40   0.01   60.5    56   18.0    54    33.9   765.6    0.00 
 182   16:50   0.01   63.6    41   28.0    70    44.6   765.2    0.00 
 182   17:00   0.01   64.4    40   19.2    60    29.0   765.6    0.00 
 182   17:10   0.01   64.8    36   26.0    83    32.7   765.5    0.00 
 182   17:20   0.03   64.7    36   22.2    90    29.7   765.5    0.00 
 182   17:30   0.04   64.2    38   24.2    92    32.3   765.2    0.00 
 182   17:40   0.06   64.2    38   25.9    91    35.3   765.2    0.00 
 182   17:50   0.05   63.6    40   28.3    95    35.3   765.4    0.00 
 182   18:00   0.03   64.8    36   26.6    90    35.3   765.6    0.00 
 182   18:10   0.02   65.4    34   28.1    86    37.0   765.5    0.00 
 182   18:20   0.03   65.1    35   27.1    84    40.1   765.5    0.00 
 182   18:30   0.03   63.7    40   32.8    90    46.4   765.3    0.00 
 182   18:40   0.02   60.5    54   37.3    94    45.7   765.1    0.00 
 182   18:50   0.01   59.2    58   33.8    95    41.4   765.1    0.00 
 182   19:00   0.01   59.3    57   32.7    96    41.5   765.2    0.00 
 182   19:10   0.00   59.7    55   31.3    96    37.8   765.3    0.00 
 182   19:20   0.00   59.8    54   27.7    98    37.7   765.5    0.00 
 182   19:30   0.00   61.1    49   25.3    99    32.2   765.8    0.00 
 182   19:40   0.00   61.9    46   20.9   105    25.8   766.0    0.00 
 182   19:50   0.00   62.6    43   20.0   107    23.0   766.1    0.00 
 182   20:00   0.00   63.2    41   16.4   118    21.3   766.2    0.00 
 182   20:10   0.00   62.7    44   20.0   134    41.6   766.3    0.00 
 182   20:20   0.00   60.7    53   30.5   129    38.5   766.2    0.00 
 182   20:30   0.00   59.1    61   32.3   129    39.3   766.2    0.00 
 182   20:40   0.00   58.5    65   32.0   129    42.6   766.3    0.00 
 182   20:50   0.00   58.1    68   28.6   128    36.5   766.5    0.00 
 182   21:00   0.00   57.9    70   26.3   129    34.6   766.8    0.00 
 182   21:10   0.00   57.7    72   20.6   129    26.2   767.2    0.00 
 182   21:20   0.00   57.4    75   19.3   128    24.9   767.2    0.00 
 182   21:30   0.00   57.3    75   19.2   127    21.9   767.3    0.00 
 182   21:40   0.00   57.6    74   18.8   131    21.7   767.0    0.00 
 182   21:50   0.00   58.4    69   12.3   129    20.0   767.2    0.00 
 182   22:00   0.00   58.8    67    5.5    92    11.0   767.1    0.00 
 182   22:10   0.00   58.7    68    4.3   141     8.3   767.1    0.00 
 182   22:20   0.00   58.6    70    3.7    30     7.2   767.2    0.00 
 182   22:30   0.00   58.4    69    8.7    40    13.6   767.2    0.00 
 182   22:40   0.00   57.7    70    4.9    48    13.4   767.2    0.00 
 182   22:50   0.00   57.1    68    5.9    59    24.4   767.1    0.00 
 182   23:00   0.00   57.0    64    4.5    57    16.0   766.9    0.00 
 182   23:10   0.00   57.3    63    5.1    59    17.8   767.0    0.00 
 182   23:20   0.00   56.9    64    4.6    60    17.8   766.9    0.00 
 182   23:30   0.00   56.8    63    6.7    54    21.4   766.8    0.00 
 182   23:40   0.00   56.9    61    4.3    62    15.8   766.8    0.00 
 182   23:50   0.00   57.3    60   11.2    43    17.2   766.7    0.00 
 183    0:00   0.00   57.5    60   13.9    32    18.5   766.5    0.00 
 183    0:10   0.00   57.6    61   16.8    25    23.8   766.6    0.00 
 183    0:20   0.00   57.8    60   22.4    26    28.6   766.3    0.00 
 183    0:30   0.00   58.2    58   19.5    30    27.3   766.3    0.00 
 183    0:40   0.00   58.0    58   23.1    20    31.6   766.2    0.00 
 183    0:50   0.00   57.8    58   23.4    26    31.6   766.2    0.00 
 183    1:00   0.00   58.0    58   21.6    18    32.2   766.2    0.00 
 183    1:10   0.00   57.7    59   19.4    12    27.0   766.2    0.00 
 183    1:20   0.00   57.6    59   20.3     5    27.0   766.1    0.00 
 183    1:30   0.00   57.3    60   20.0   190    28.1   766.0    0.00 
 183    1:40   0.00   57.1    60   18.6   206    26.8   765.8    0.00 
 183    1:50   0.00   56.9    61   17.6   190    23.5   765.8    0.00 
 183    2:00   0.00   56.3    64   17.6   182    20.5   765.6    0.00 
 183    2:10   0.00   56.2    64   16.3   178    19.4   765.7    0.00 
 183    2:20   0.00   55.4    70   15.5   173    19.7   765.7    0.00 
 183    2:30   0.00   54.8    74   13.7   170    17.2   765.8    0.00 
 183    2:40   0.00   54.3    75    8.0   171    12.5   765.8    0.00 
 183    2:50   0.00   55.4    67    2.9    61     6.0   765.7    0.00 
 183    3:00   0.00   56.6    61    6.8    58    10.2   765.6    0.00 
 183    3:10   0.00   57.1    59    7.4    52     9.9   765.5    0.00 
 183    3:20   0.00   56.9    60    7.9    50     9.8   765.4    0.00 
 183    3:30   0.00   56.8    61    7.9    40     9.1   765.3    0.00 
 183    3:40   0.00   57.3    56    7.1    39     8.5   765.2    0.00 
 183    3:50   0.00   58.9    48    5.5    32     6.9   765.1    0.00 

Return to Tikaboo Peak graphs page.


Western Regional Climate Center,wrcc@dri.edu